Saturday, October 25, 2014
12:00 UTC
  |  Log In   |  Register Free
Airport Search:

Pocono Mountains Municipal Airport
(KMPO)

Pocono Mountains Municipal Airport Diagram
No Airport Diagram Available

FAA data valid effective September 18, 2014 - November 13, 2014 (unless otherwise noted).

 
 
 
 
 
 
 
 
 
 
 
 
 
 

Current Aviation Weather for Pocono Mountains Municipal Airport (KMPO)

The most recent METAR observation for KMPO was updated at: 1113
METAR Summary (Translated METAR)
KMPO
251053Z AUTO 30006KT 10SM CLR 06/M01 A2987 RMK AO2 SLP122 T00561011
KAVP
251054Z AUTO 00000KT 10SM BKN060 04/00 A2990 RMK AO2 SLP125 T00390000
(19.6 nm NW from KMPO)
KABE
251051Z 00000KT 10SM CLR 05/00 A2990 RMK AO2 SLP127 T00500000
(29.3 nm SW from KMPO)
TAF Summary (Translated TAF)
KAVP
(19.6 nm NW from KMPO)
250856Z 2509/2606 VRB03KT P6SM SKC FM251100 22008KT P6SM BKN050 FM251600 24012G22KT P6SM SCT050 BKN120 FM260000 29008KT P6SM BKN040
KABE
(29.3 nm SW from KMPO)
250540Z 2506/2606 31007KT P6SM FEW200 TEMPO 2512/2515 BKN035 FM251700 28010G18KT P6SM FEW040 FM252300 26008KT P6SM BKN040
  Airport Weather Conditions for KMPO

 Current Weather at MPO
42° F
Fair
Northwest winds at 6.9 mph
MPO NOAA Radar

Pressure: 29.87 in
Humidity: 62%
Wind: Northwest at 6.9 MPH (6 KT)
Dew Point: 30.0°F
Visibility: 10.00 mi


Airport Weather Forecast for KMPO

Translated METAR and TAF for KMPO
Translated METAR for KMPO (1155 UTC 25 October 2014)
found at http://aviationweather.gov/adds/metars/
 
METAR text: KMPO 251053Z AUTO 30006KT 10SM CLR 06/M01 A2987 RMK AO2 SLP122 T00561011
Conditions at: KMPO (MT. POCONO , PA, US) observed 1053 UTC 25 October 2014
Temperature: 5.6°C (42°F)
Dewpoint: -1.1°C (30°F) [RH = 62%]
Pressure (altimeter): 29.87 inches Hg (1011.6 mb)
[Sea-level pressure: 1012.2 mb]
Winds: from the WNW (300 degrees) at 7 MPH (6 knots; 3.1 m/s)
Visibility: 10 or more miles (16+ km)
Ceiling: at least 12,000 feet AGL
Clouds: sky clear below 12,000 feet AGL
Weather: automated observation with no human augmentation;
there may or may not be significant weather present at this time
Translated TAF for KMPO

There is no translated TAF available for this airport

Find All Airport Services Find A Hotel Find A Rental Car Find A Golf Course Find A Restaurant $100 Hamburger



FBO's on the Field
FBO Company Facility Photos Services Transportation Aviation Fuel Prices: Prices include tax
Catering Weather Repair Courtesy Rental Type 100LL JetA JetA+ MOGAS 8087
 
Pocono Mountains Municipal Airport Authority

This FBO has not yet been rated
FS: Phillips 66
Last Updated: Oct-13
Login to update fuel prices
SS:
Contact Pocono Mountains Municipal Airport AuthorityMore FBO Information
 
Add another FBO Facility Photos Catering Weather Repair Courtesy Rental Type 100LL JetA JetA+ MOGAS 8087
Services Transportation Aviation Fuel Prices: Prices include tax


model-print
model-print
model-print
model-print